createdAt,value
2023-02-21T00:00:13.769Z,100194.05
2023-02-21T00:03:00.900Z,100184.77
2023-02-21T00:05:48.746Z,100180.10
2023-02-21T00:08:35.945Z,100178.73
2023-02-21T00:11:24.033Z,100175.02
2023-02-21T00:14:11.473Z,100175.69
2023-02-21T00:16:58.491Z,100168.02
2023-02-21T00:19:47.252Z,100160.67
2023-02-21T00:22:34.349Z,100164.61
2023-02-21T00:25:21.745Z,100161.86
2023-02-21T00:28:09.056Z,100156.60
2023-02-21T00:30:56.455Z,100149.77
2023-02-21T00:33:43.887Z,100134.50
2023-02-21T00:36:35.732Z,100123.59
2023-02-21T00:39:23.094Z,100120.45
2023-02-21T00:42:10.574Z,100110.84
2023-02-21T00:44:57.271Z,100105.86
2023-02-21T00:47:44.719Z,100098.48
2023-02-21T00:50:32.910Z,100094.71
2023-02-21T00:53:20.039Z,100095.71
2023-02-21T01:04:25.097Z,100076.81
2023-02-21T01:07:11.463Z,100075.84
2023-02-21T01:09:58.480Z,100066.61
2023-02-21T01:12:44.464Z,100061.31
2023-02-21T01:15:30.014Z,100055.10
2023-02-21T01:18:16.242Z,100050.23
2023-02-21T01:21:01.969Z,100045.27
2023-02-21T01:23:47.926Z,100043.59
2023-02-21T01:26:33.471Z,100029.61
2023-02-21T01:29:19.230Z,100028.21
2023-02-21T01:32:04.797Z,100024.20
2023-02-21T01:34:50.425Z,100021.30
2023-02-21T01:37:36.417Z,100011.44
2023-02-21T01:40:22.398Z,100014.88
2023-02-21T01:43:08.870Z,100007.05
2023-02-21T01:45:54.798Z,99995.70
2023-02-21T01:48:41.287Z,99993.88
2023-02-21T01:51:27.179Z,99989.48
2023-02-21T01:54:12.737Z,99996.09
2023-02-21T01:56:58.738Z,100002.38
2023-02-21T01:59:44.548Z,100001.95
2023-02-21T02:02:57.983Z,99998.91
2023-02-21T02:05:44.604Z,99992.24
2023-02-21T02:08:32.125Z,99992.35
2023-02-21T02:11:33.796Z,99996.73
2023-02-21T02:14:26.453Z,99989.89
2023-02-21T02:17:19.402Z,99995.54
2023-02-21T02:20:10.856Z,99987.02
2023-02-21T02:23:13.907Z,99986.49
2023-02-21T02:25:59.767Z,99975.16
2023-02-21T02:28:53.223Z,99970.58
2023-02-21T02:31:29.196Z,99970.83
2023-02-21T02:34:08.468Z,99969.45
2023-02-21T02:37:04.007Z,99969.41
2023-02-21T02:39:41.407Z,99971.55
2023-02-21T02:42:47.027Z,99968.05
2023-02-21T02:45:36.274Z,99973.74
2023-02-21T02:48:12.599Z,99965.75
2023-02-21T02:50:39.604Z,99961.72
2023-02-21T02:53:06.924Z,99960.95
2023-02-21T02:55:37.801Z,99963.71
2023-02-21T02:58:05.246Z,99968.48
2023-02-21T03:00:33.022Z,99965.81
2023-02-21T03:03:16.032Z,99967.11
2023-02-21T03:05:43.223Z,99962.68
2023-02-21T03:08:27.545Z,99959.13
2023-02-21T03:11:03.961Z,99959.92
2023-02-21T03:14:04.208Z,99960.30
2023-02-21T03:16:38.065Z,99955.95
2023-02-21T03:19:14.573Z,99952.84
2023-02-21T03:21:43.638Z,99952.38
2023-02-21T03:24:11.430Z,99943.38
2023-02-21T03:26:38.509Z,99939.27
2023-02-21T03:29:44.167Z,99936.05
2023-02-21T03:32:25.340Z,99933.89
2023-02-21T03:34:53.113Z,99928.20
2023-02-21T03:37:22.183Z,99929.92
2023-02-21T03:39:49.658Z,99931.14
2023-02-21T03:42:16.571Z,99930.63
2023-02-21T03:44:43.467Z,99926.90
2023-02-21T03:47:10.443Z,99926.91
2023-02-21T03:49:38.439Z,99929.92
2023-02-21T03:52:05.911Z,99920.30
2023-02-21T03:54:35.136Z,99920.23
2023-02-21T03:57:02.085Z,99918.56
2023-02-21T03:59:32.496Z,99916.80
2023-02-21T04:01:59.442Z,99911.48
2023-02-21T04:04:29.331Z,99913.16
2023-02-21T04:07:06.218Z,99912.41
2023-02-21T04:09:34.484Z,99916.48
2023-02-21T04:12:01.726Z,99912.08
2023-02-21T04:14:31.188Z,99912.64
2023-02-21T04:16:59.702Z,99914.77
2023-02-21T04:19:27.337Z,99907.56
2023-02-21T04:21:54.634Z,99899.19
2023-02-21T04:24:21.674Z,99899.63
2023-02-21T04:26:52.945Z,99898.52
2023-02-21T04:29:21.494Z,99901.19
2023-02-21T04:31:48.558Z,99897.33
2023-02-21T04:34:17.600Z,99901.14
2023-02-21T04:36:45.786Z,99897.23
2023-02-21T04:39:13.913Z,99896.83
2023-02-21T04:41:41.319Z,99902.10
2023-02-21T04:44:09.917Z,99896.69
2023-02-21T04:46:37.263Z,99899.22
2023-02-21T04:49:04.480Z,99900.04
2023-02-21T04:51:32.558Z,99892.35
2023-02-21T04:54:00.116Z,99884.14
2023-02-21T04:56:28.424Z,99877.08
2023-02-21T04:58:55.981Z,99880.13
2023-02-21T05:01:23.185Z,99877.36
2023-02-21T05:03:50.461Z,99872.35
2023-02-21T05:06:21.465Z,99863.58
2023-02-21T05:08:48.247Z,99868.48
2023-02-21T05:11:17.094Z,99869.35
2023-02-21T05:13:44.329Z,99861.60
2023-02-21T05:16:14.309Z,99854.75
2023-02-21T05:18:42.809Z,99858.58
2023-02-21T05:21:09.888Z,99855.50
2023-02-21T05:23:39.678Z,99858.61
2023-02-21T05:26:11.869Z,99862.15
2023-02-21T05:28:39.704Z,99856.25
2023-02-21T05:31:07.947Z,99857.05
2023-02-21T05:33:34.876Z,99862.56
2023-02-21T05:36:02.365Z,99851.89
2023-02-21T05:38:30.136Z,99852.06
2023-02-21T05:40:57.614Z,99855.44
2023-02-21T05:43:24.542Z,99860.83
2023-02-21T05:45:51.702Z,99864.72
2023-02-21T05:48:18.869Z,99861.33
2023-02-21T05:50:45.913Z,99855.70
2023-02-21T05:53:13.074Z,99854.96
2023-02-21T05:55:40.181Z,99843.90
2023-02-21T05:58:07.092Z,99849.17
2023-02-21T06:00:34.354Z,99855.83
2023-02-21T06:03:04.480Z,99855.34
2023-02-21T06:05:32.048Z,99859.23
2023-02-21T06:08:02.379Z,99864.09
2023-02-21T06:10:29.642Z,99861.33
2023-02-21T06:12:56.690Z,99858.53
2023-02-21T06:15:24.028Z,99852.00
2023-02-21T06:17:51.286Z,99859.69
2023-02-21T06:20:20.543Z,99853.63
2023-02-21T06:22:49.048Z,99850.16
2023-02-21T06:25:16.310Z,99843.99
2023-02-21T06:27:46.119Z,99845.86
2023-02-21T06:30:13.464Z,99840.06
2023-02-21T06:32:42.382Z,99845.02
2023-02-21T06:35:09.467Z,99840.79
2023-02-21T06:37:36.928Z,99841.16
2023-02-21T06:48:22.471Z,99833.39
2023-02-21T06:50:49.669Z,99833.44
2023-02-21T06:53:16.794Z,99837.46
2023-02-21T06:55:43.816Z,99843.60
2023-02-21T06:58:11.182Z,99844.59
2023-02-21T07:00:40.705Z,99848.77
2023-02-21T07:03:07.710Z,99837.20
2023-02-21T07:05:37.153Z,99835.67
2023-02-21T07:08:04.454Z,99831.77
2023-02-21T07:10:32.364Z,99819.27
2023-02-21T07:13:00.469Z,99830.01
2023-02-21T07:15:28.112Z,99835.23
2023-02-21T07:17:55.756Z,99836.74
2023-02-21T07:20:22.800Z,99839.94
2023-02-21T07:22:50.917Z,99846.83
2023-02-21T07:25:19.437Z,99858.98
2023-02-21T07:27:47.793Z,99855.48
2023-02-21T07:30:15.729Z,99861.01
2023-02-21T07:35:13.102Z,99866.66
2023-02-21T07:37:40.141Z,99865.20
2023-02-21T07:40:07.861Z,99861.05
2023-02-21T07:42:36.248Z,99858.05
2023-02-21T07:45:06.715Z,99856.32
2023-02-21T07:47:34.765Z,99853.08
2023-02-21T07:50:01.821Z,99853.17
2023-02-21T07:52:29.075Z,99862.33
2023-02-21T07:54:56.293Z,99857.05
2023-02-21T07:57:23.738Z,99855.00
2023-02-21T07:59:50.880Z,99865.10
2023-02-21T08:02:18.065Z,99858.94
2023-02-21T08:04:45.200Z,99851.98
2023-02-21T08:07:12.683Z,99847.22
2023-02-21T08:09:40.490Z,99853.92
2023-02-21T08:12:12.922Z,99845.48
2023-02-21T08:14:46.394Z,99850.64
2023-02-21T08:17:13.676Z,99851.08
2023-02-21T08:19:40.988Z,99854.15
2023-02-21T08:22:08.629Z,99861.09
2023-02-21T08:24:41.235Z,99855.33
2023-02-21T08:27:08.310Z,99845.69
2023-02-21T08:29:35.247Z,99841.55
2023-02-21T08:32:02.415Z,99836.54
2023-02-21T08:34:30.004Z,99835.08
2023-02-21T08:36:57.177Z,99842.38
2023-02-21T08:39:24.432Z,99834.38
2023-02-21T08:41:52.191Z,99833.08
2023-02-21T08:44:21.339Z,99834.98
2023-02-21T08:46:51.042Z,99815.02
2023-02-21T08:49:18.241Z,99822.14
2023-02-21T08:51:45.624Z,99818.23
2023-02-21T08:54:13.856Z,99816.66
2023-02-21T08:57:34.413Z,99807.30
2023-02-21T09:00:02.422Z,99804.19
2023-02-21T09:02:32.365Z,99805.45
2023-02-21T09:04:59.852Z,99799.09
2023-02-21T09:07:30.030Z,99803.66
2023-02-21T09:09:59.551Z,99800.94
2023-02-21T09:12:28.420Z,99812.41
2023-02-21T09:15:00.395Z,99812.13
2023-02-21T09:17:27.986Z,99801.48
2023-02-21T09:19:55.039Z,99800.19
2023-02-21T09:22:22.364Z,99787.46
2023-02-21T09:24:49.876Z,99782.19
2023-02-21T09:27:17.399Z,99774.23
2023-02-21T09:29:47.234Z,99767.86
2023-02-21T09:32:14.624Z,99770.06
2023-02-21T09:34:42.967Z,99763.89
2023-02-21T09:37:12.048Z,99766.98
2023-02-21T09:39:39.988Z,99762.20
2023-02-21T09:42:08.992Z,99773.19
2023-02-21T09:44:38.136Z,99770.73
2023-02-21T09:47:06.114Z,99756.77
2023-02-21T09:49:39.748Z,99759.82
2023-02-21T10:00:17.702Z,99760.52
2023-02-21T10:03:09.895Z,99757.25
2023-02-21T10:05:52.114Z,99751.30
2023-02-21T10:08:41.822Z,99740.78
2023-02-21T10:11:37.106Z,99753.97
2023-02-21T10:14:44.365Z,99734.45
2023-02-21T10:17:16.907Z,99723.44
2023-02-21T10:19:51.329Z,99738.41
2023-02-21T10:22:32.070Z,99727.52
2023-02-21T10:25:01.834Z,99720.17
2023-02-21T10:27:31.359Z,99699.52
2023-02-21T10:30:05.769Z,99701.05
2023-02-21T10:32:34.160Z,99692.70
2023-02-21T10:35:02.906Z,99698.06
2023-02-21T10:37:42.421Z,99709.02
2023-02-21T10:40:18.666Z,99686.78
2023-02-21T10:42:54.858Z,99687.90
2023-02-21T10:45:27.983Z,99696.59
2023-02-21T10:48:07.870Z,99665.35
2023-02-21T10:50:58.694Z,99665.00
2023-02-21T10:53:31.521Z,99651.16
2023-02-21T10:56:26.506Z,99681.92
2023-02-21T10:58:58.011Z,99668.76
2023-02-21T11:01:32.908Z,99665.42
2023-02-21T11:04:23.133Z,99676.82
2023-02-21T11:07:05.639Z,99652.58
2023-02-21T11:09:37.321Z,99657.20
2023-02-21T11:12:22.870Z,99655.60
2023-02-21T11:14:52.830Z,99659.36
2023-02-21T11:17:22.806Z,99631.80
2023-02-21T11:20:20.001Z,99645.48
2023-02-21T11:22:49.113Z,99625.86
2023-02-21T11:25:24.943Z,99620.00
2023-02-21T11:28:21.838Z,99625.41
2023-02-21T11:31:01.135Z,99629.61
2023-02-21T11:33:29.824Z,99607.00
2023-02-21T11:36:17.561Z,99619.63
2023-02-21T11:38:59.101Z,99602.42
2023-02-21T11:41:51.623Z,99602.23
2023-02-21T11:44:38.078Z,99611.62
2023-02-21T11:47:23.125Z,99618.45
2023-02-21T11:50:16.562Z,99613.61
2023-02-21T11:53:22.917Z,99613.20
2023-02-21T11:56:18.813Z,99612.71
2023-02-21T11:59:05.597Z,99610.19
2023-02-21T12:01:47.148Z,99620.69
2023-02-21T12:04:32.184Z,99612.13
2023-02-21T12:07:00.779Z,99612.02
2023-02-21T12:09:55.883Z,99624.33
2023-02-21T12:12:46.698Z,99612.02
2023-02-21T12:15:31.438Z,99605.54
2023-02-21T12:18:34.634Z,99604.38
2023-02-21T12:21:06.488Z,99594.57
2023-02-21T12:24:00.034Z,99604.28
2023-02-21T12:26:50.654Z,99613.82
2023-02-21T12:29:32.104Z,99599.45
2023-02-21T12:32:00.682Z,99598.23
2023-02-21T12:34:58.024Z,99607.76
2023-02-21T12:37:52.124Z,99607.61
2023-02-21T12:40:27.600Z,99596.43
2023-02-21T12:43:12.291Z,99587.69
2023-02-21T12:45:45.060Z,99597.92
2023-02-21T12:48:33.564Z,99582.92
2023-02-21T12:51:07.498Z,99582.52
2023-02-21T12:53:39.673Z,99576.15
2023-02-21T12:56:16.181Z,99583.52
2023-02-21T12:59:07.399Z,99593.49
2023-02-21T13:01:50.021Z,99592.64
2023-02-21T13:04:37.757Z,99587.52
2023-02-21T13:07:27.802Z,99590.91
2023-02-21T13:10:08.315Z,99592.84
2023-02-21T13:12:45.476Z,99602.48
2023-02-21T13:15:33.858Z,99608.20
2023-02-21T13:18:07.769Z,99600.31
2023-02-21T13:20:39.670Z,99606.73
2023-02-21T13:23:44.162Z,99612.59
2023-02-21T13:26:26.868Z,99615.23
2023-02-21T13:28:56.569Z,99623.75
2023-02-21T13:31:38.618Z,99624.02
2023-02-21T13:34:09.367Z,99629.80
2023-02-21T13:36:38.628Z,99640.27
2023-02-21T13:39:21.231Z,99637.48
2023-02-21T13:41:50.930Z,99632.90
2023-02-21T13:44:34.415Z,99635.39
2023-02-21T13:47:22.501Z,99639.61
2023-02-21T13:49:58.352Z,99655.35
2023-02-21T13:52:32.724Z,99664.11
2023-02-21T13:55:35.869Z,99657.58
2023-02-21T13:58:07.715Z,99668.30
2023-02-21T14:00:36.634Z,99669.66
2023-02-21T14:03:09.272Z,99662.25
2023-02-21T14:05:47.968Z,99671.83
2023-02-21T14:08:26.537Z,99667.45
2023-02-21T14:10:56.841Z,99671.61
2023-02-21T14:13:54.710Z,99669.31
2023-02-21T14:16:29.881Z,99662.08
2023-02-21T14:19:00.402Z,99650.17
2023-02-21T14:21:35.096Z,99644.42
2023-02-21T14:24:22.192Z,99645.77
2023-02-21T14:26:58.004Z,99650.18
2023-02-21T14:29:40.756Z,99653.60
2023-02-21T14:32:13.140Z,99648.45
2023-02-21T14:34:54.531Z,99641.15
2023-02-21T14:37:45.334Z,99644.10
2023-02-21T14:40:29.549Z,99646.23
2023-02-21T14:43:28.395Z,99654.49
2023-02-21T14:45:56.773Z,99666.94
2023-02-21T14:48:28.255Z,99678.91
2023-02-21T14:51:14.985Z,99701.18
2023-02-21T14:54:21.729Z,99728.86
2023-02-21T14:56:59.401Z,99785.02
2023-02-21T14:59:32.802Z,99829.40
2023-02-21T15:02:04.036Z,99894.34
2023-02-21T15:04:46.373Z,99898.89
2023-02-21T15:07:24.132Z,99892.94
2023-02-21T15:10:17.216Z,99884.21
2023-02-21T15:13:02.194Z,99891.08
2023-02-21T15:15:39.868Z,99903.37
2023-02-21T15:18:24.887Z,99908.52
2023-02-21T15:21:11.448Z,99928.14
2023-02-21T15:23:44.793Z,99904.95
2023-02-21T15:26:28.146Z,99915.58
2023-02-21T15:29:18.064Z,99930.70
2023-02-21T15:31:54.244Z,99948.98
2023-02-21T15:34:29.597Z,99946.27
2023-02-21T15:37:29.778Z,99955.08
2023-02-21T15:40:05.674Z,99960.75
2023-02-21T15:42:34.199Z,99970.59
2023-02-21T15:45:05.799Z,99988.42
2023-02-21T15:47:34.935Z,99991.85
2023-02-21T15:50:04.754Z,100021.05
2023-02-21T15:52:41.310Z,100020.87
2023-02-21T15:55:19.888Z,100006.55
2023-02-21T15:58:13.349Z,99994.55
2023-02-21T16:00:46.658Z,100002.30
2023-02-21T16:03:34.031Z,100002.75
2023-02-21T16:06:26.057Z,99993.20
2023-02-21T16:09:02.303Z,99991.60
2023-02-21T16:11:40.321Z,99998.61
2023-02-21T16:14:21.301Z,100005.05
2023-02-21T16:16:54.137Z,100007.81
2023-02-21T16:19:23.352Z,100036.02
2023-02-21T16:22:10.327Z,100043.35
2023-02-21T16:24:39.710Z,100039.98
2023-02-21T16:27:16.846Z,100041.86
2023-02-21T16:29:46.644Z,100047.99
2023-02-21T16:32:19.758Z,100064.73
2023-02-21T16:34:48.196Z,100064.14
2023-02-21T16:37:16.957Z,100060.28
2023-02-21T16:39:45.717Z,100068.56
2023-02-21T16:42:14.557Z,100066.75
2023-02-21T16:44:43.632Z,100090.39
2023-02-21T16:47:16.105Z,100101.16
2023-02-21T16:49:44.787Z,100105.46
2023-02-21T16:52:16.678Z,100089.66
2023-02-21T16:54:45.998Z,100101.45
2023-02-21T16:57:14.752Z,100071.11
2023-02-21T16:59:43.980Z,100102.88
2023-02-21T17:02:14.590Z,100126.64
2023-02-21T17:04:43.929Z,100099.23
2023-02-21T17:07:13.100Z,100134.52
2023-02-21T17:09:42.249Z,100164.71
2023-02-21T17:12:12.822Z,100145.92
2023-02-21T17:14:41.324Z,100174.08
2023-02-21T17:17:15.518Z,100141.68
2023-02-21T17:19:44.406Z,100125.63
2023-02-21T17:22:14.564Z,100102.95
2023-02-21T17:24:44.294Z,100089.45
2023-02-21T17:27:12.605Z,100099.80
2023-02-21T17:29:41.346Z,100086.38
2023-02-21T17:32:10.389Z,100116.52
2023-02-21T17:34:39.725Z,100116.81
2023-02-21T17:37:10.122Z,100119.61
2023-02-21T17:39:43.370Z,100100.39
2023-02-21T17:42:12.241Z,100115.38
2023-02-21T17:44:44.098Z,100146.59
2023-02-21T17:47:12.404Z,100160.77
2023-02-21T17:49:40.798Z,100205.49
2023-02-21T17:52:09.686Z,100174.20
2023-02-21T17:54:41.130Z,100178.70
2023-02-21T17:57:10.969Z,100171.60
2023-02-21T17:59:43.383Z,100185.50
2023-02-21T18:02:12.641Z,100184.54
2023-02-21T18:04:41.353Z,100202.60
2023-02-21T18:07:12.014Z,100200.27
2023-02-21T18:09:40.436Z,100209.31
2023-02-21T18:12:31.357Z,100211.76
2023-02-21T18:15:00.282Z,100216.13
2023-02-21T18:17:29.194Z,100214.34
2023-02-21T18:19:58.081Z,100227.58
2023-02-21T18:22:26.582Z,100234.61
2023-02-21T18:24:56.181Z,100246.04
2023-02-21T18:27:24.986Z,100237.91
2023-02-21T18:29:56.176Z,100235.45
2023-02-21T18:32:25.044Z,100253.48
2023-02-21T18:34:53.481Z,100247.59
2023-02-21T18:37:24.841Z,100252.86
2023-02-21T18:39:54.171Z,100251.23
2023-02-21T18:42:24.130Z,100251.17
2023-02-21T18:44:52.746Z,100260.11
2023-02-21T18:47:21.093Z,100251.36
2023-02-21T18:49:50.716Z,100262.66
2023-02-21T18:52:18.976Z,100267.61
2023-02-21T18:54:49.721Z,100268.26
2023-02-21T18:57:20.615Z,100258.69
2023-02-21T18:59:50.777Z,100252.57
2023-02-21T19:02:19.925Z,100252.79
2023-02-21T19:04:48.914Z,100255.00
2023-02-21T19:07:18.327Z,100276.38
2023-02-21T19:09:50.570Z,100271.23
2023-02-21T19:12:19.025Z,100262.52
2023-02-21T19:14:50.595Z,100265.70
2023-02-21T19:17:19.340Z,100282.17
2023-02-21T19:19:47.715Z,100277.98
2023-02-21T19:22:16.265Z,100280.42
2023-02-21T19:24:45.052Z,100286.63
2023-02-21T19:27:16.609Z,100284.03
2023-02-21T19:29:45.134Z,100280.96
2023-02-21T19:32:14.354Z,100284.61
2023-02-21T19:34:44.640Z,100280.11
2023-02-21T19:37:13.042Z,100287.73
2023-02-21T19:39:41.370Z,100283.67
2023-02-21T19:42:11.214Z,100291.61
2023-02-21T19:44:41.507Z,100295.58
2023-02-21T19:47:10.230Z,100294.66
2023-02-21T19:49:39.145Z,100300.52
2023-02-21T19:52:07.746Z,100306.21
2023-02-21T19:54:40.153Z,100310.61
2023-02-21T19:57:08.547Z,100304.92
2023-02-21T19:59:37.344Z,100303.48
2023-02-21T20:02:06.412Z,100304.04
2023-02-21T20:04:36.340Z,100311.84
2023-02-21T20:07:05.517Z,100310.02
2023-02-21T20:09:33.977Z,100308.73
2023-02-21T20:12:02.649Z,100313.77
2023-02-21T20:14:31.268Z,100309.90
2023-02-21T20:17:00.820Z,100306.42
2023-02-21T20:19:30.590Z,100299.95
2023-02-21T20:21:59.412Z,100314.85
2023-02-21T20:24:27.731Z,100324.63
2023-02-21T20:26:56.442Z,100330.89
2023-02-21T20:29:27.677Z,100336.62
2023-02-21T20:31:56.333Z,100333.36
2023-02-21T20:34:24.926Z,100338.83
2023-02-21T20:36:53.329Z,100344.41
2023-02-21T20:39:42.072Z,100343.10
2023-02-21T20:42:10.690Z,100355.84
2023-02-21T20:44:39.461Z,100348.77
2023-02-21T20:47:10.105Z,100340.45
2023-02-21T20:49:39.072Z,100335.23
2023-02-21T20:52:07.345Z,100339.39
2023-02-21T20:54:36.478Z,100338.27
2023-02-21T20:57:04.837Z,100339.91
2023-02-21T20:59:35.173Z,100348.04
2023-02-21T21:02:05.519Z,100349.10
2023-02-21T21:04:36.502Z,100342.50
2023-02-21T21:07:08.014Z,100343.96
2023-02-21T21:09:39.010Z,100346.44
2023-02-21T21:12:21.341Z,100348.88
2023-02-21T21:14:50.997Z,100350.29
2023-02-21T21:17:19.922Z,100349.70
2023-02-21T21:19:53.781Z,100346.89
2023-02-21T21:22:27.630Z,100350.23
2023-02-21T21:24:56.272Z,100351.49
2023-02-21T21:27:24.895Z,100354.33
2023-02-21T21:29:53.958Z,100359.10
2023-02-21T21:32:23.511Z,100366.64
2023-02-21T21:34:54.403Z,100368.59
2023-02-21T21:37:24.930Z,100361.77
2023-02-21T21:39:56.729Z,100365.90
2023-02-21T21:42:26.838Z,100371.10
2023-02-21T21:44:56.641Z,100375.19
2023-02-21T21:47:27.594Z,100373.42
2023-02-21T21:49:56.331Z,100381.80
2023-02-21T21:52:24.961Z,100364.61
2023-02-21T21:54:53.207Z,100373.69
2023-02-21T21:57:23.029Z,100377.08
2023-02-21T21:59:51.494Z,100368.77
2023-02-21T22:02:20.252Z,100361.05
2023-02-21T22:04:49.190Z,100362.80
2023-02-21T22:07:19.913Z,100352.28
2023-02-21T22:09:51.238Z,100355.39
2023-02-21T22:12:20.031Z,100353.77
2023-02-21T22:14:50.463Z,100351.48
2023-02-21T22:17:20.182Z,100351.58
2023-02-21T22:19:50.903Z,100355.48
2023-02-21T22:22:20.241Z,100357.97
2023-02-21T22:24:49.284Z,100358.77
2023-02-21T22:27:23.500Z,100368.79
2023-02-21T22:29:52.489Z,100374.38
2023-02-21T22:32:21.419Z,100383.04
2023-02-21T22:34:51.604Z,100386.73
2023-02-21T22:37:21.535Z,100390.15
2023-02-21T22:39:49.804Z,100394.04
2023-02-21T22:42:18.850Z,100393.25
2023-02-21T22:44:50.876Z,100400.50
2023-02-21T22:47:19.436Z,100404.81
2023-02-21T22:49:48.824Z,100409.34
2023-02-21T22:52:17.305Z,100412.17
2023-02-21T22:54:47.428Z,100409.50
2023-02-21T22:57:16.226Z,100407.96
2023-02-21T22:59:48.239Z,100412.06
2023-02-21T23:02:17.833Z,100414.67
2023-02-21T23:04:46.807Z,100420.42
2023-02-21T23:07:17.402Z,100421.25
2023-02-21T23:09:48.781Z,100424.27
2023-02-21T23:12:18.448Z,100423.82
2023-02-21T23:14:48.499Z,100425.33
2023-02-21T23:17:18.398Z,100429.94
2023-02-21T23:19:47.128Z,100437.38
2023-02-21T23:22:16.063Z,100437.59
2023-02-21T23:24:47.719Z,100433.57
2023-02-21T23:27:16.509Z,100438.59
2023-02-21T23:29:48.024Z,100443.52
2023-02-21T23:32:16.566Z,100448.10
2023-02-21T23:34:45.632Z,100450.70
2023-02-21T23:37:15.673Z,100447.00
2023-02-21T23:39:46.885Z,100446.21
2023-02-21T23:42:17.866Z,100450.44
2023-02-21T23:44:50.974Z,100443.52
2023-02-21T23:47:20.029Z,100451.83
2023-02-21T23:49:48.467Z,100456.03
2023-02-21T23:52:17.803Z,100458.34
2023-02-21T23:54:47.431Z,100459.23
2023-02-21T23:57:16.580Z,100458.95
2023-02-21T23:59:45.087Z,100463.23
